Neah Bay, WA (Traffic Separation Lighted Buoy) (46087)

Conditions for Wednesday

Daily
Weekly
Monthly
Marine Data Graph

Marine & Boating Location Search

Enter a coastal zip code for marine weather.

General Information

Location: 48.494 North -124.728 West
Buoy Type: 3-meter discus buoy
Buoy Hull: 3D16
Payload: AMPS payload
Owned by: NDBC
Windspeed: Measured by obtained from anemometer
Sea Surface: Measured by Intake

Weather and Wave Data

Time Temp Humidity Wind Dominant Wave Wind Wave Wave Swell Pressure
  Air
(°F)
Water
(°F)
  Dir Speed
(kts)
Speed
(mph)
Period
(sec)
Height
(ft)
Range
(ft)
Period
(sec)
Height
(ft)
Range
(ft)
Period
(sec)
Height
(ft)
Range
(ft)
Atmo.
(in)
Tend.
(in)
20:20 41 46 68 North 3.9 4.5 - - - - - - 30.69 -
20:50 41 46 68 NE 3.9 4.5 14 5.25 exactly 5.2 - - - 14 4.92 4.10 - 5.74 30.69 -
21:20 41 46 69 NNE 3.9 4.5 - - - - - - 30.69 -
21:50 41 46 68 ENE 1.9 2.2 12 5.25 exactly 5.2 - - - 12 4.92 4.10 - 5.74 30.68 -0.01
22:20 41 46 69 NE 3.9 4.5 - - - - - - 30.69 -
22:50 41 46 71 ENE 3.9 4.5 15 6.89 exactly 6.9 - - - 15 6.56 5.74 - 7.38 30.68 -0.01
23:20 41 46 71 NE 3.9 4.5 - - - - - - 30.68 -
23:50 41 46 71 NE 3.9 4.5 14 5.25 exactly 5.2 - - - 14 4.92 4.10 - 5.74 30.68 -0.01
00:20 41 46 72 NE 3.9 4.5 - - - - - - 30.67 -
00:50 41 46 71 ENE 3.9 4.5 13 6.23 exactly 6.2 - - - 13 6.56 5.74 - 7.38 30.67 -0.01
01:20 41 46 73 ENE 3.9 4.5 - - - - - - 30.67 -
01:50 41 46 73 East 5.8 6.7 11 6.56 exactly 6.6 - - - 11 6.56 5.74 - 7.38 30.66 -0.02
02:20 40 46 76 ENE 5.8 6.7 - - - - - - 30.67 -
02:50 41 46 73 East 5.8 6.7 11 6.56 exactly 6.6 - - - 11 6.56 5.74 - 7.38 30.67 -
03:20 40 46 78 ENE 7.8 8.9 - - - - - - 30.67 -
03:50 40 46 78 ENE 7.8 8.9 13 6.23 exactly 6.2 - - - 13 6.56 5.74 - 7.38 30.67 -
04:20 40 46 77 ENE 7.8 8.9 - - - - - - 30.66 -
04:50 40 46 75 ENE 9.7 11.2 13 5.91 exactly 5.9 - - - 13 6.56 5.74 - 7.38 30.64 -0.02
05:20 40 46 75 ENE 7.8 8.9 - - - - - - 30.64 -
05:50 40 46 73 ENE 9.7 11.2 12 5.91 exactly 5.9 5 1.64 0.82 - 2.46 12 4.92 4.10 - 5.74 30.63 -0.04
06:20 40 46 72 ENE 11.7 13.4 - - - - - - 30.63 -
06:50 40 46 73 NE 9.7 11.2 13 5.58 exactly 5.6 3 1.64 0.82 - 2.46 13 4.92 4.10 - 5.74 30.63 -0.04
07:20 40 46 74 NNE 7.8 8.9 - - - - - - 30.62 -
07:50 40 46 72 NNE 5.8 6.7 12 4.92 exactly 4.9 - - - 12 4.92 4.10 - 5.74 30.63 -0.01
08:20 40 46 73 NE 5.8 6.7 - - - - - - 30.63 -
08:50 40 46 71 NNE 5.8 6.7 13 4.59 exactly 4.6 3 1.64 0.82 - 2.46 13 4.92 4.10 - 5.74 30.63 -
09:20 40 45 72 NE 5.8 6.7 - - - - - - 30.64 -
09:50 40 46 75 NE 3.9 4.5 12 4.92 exactly 4.9 - - - 12 4.92 4.10 - 5.74 30.64 +0.02
10:20 40 46 76 NNE 3.9 4.5 - - - - - - 30.64 -
10:50 40 46 75 NE 3.9 4.5 13 5.25 exactly 5.2 3 1.64 0.82 - 2.46 13 4.92 4.10 - 5.74 30.64 +0.01
11:20 40 46 77 ENE 7.8 8.9 - - - - - - 30.63 -
11:50 39 46 80 NE 7.8 8.9 11 5.25 exactly 5.2 - - - 11 4.92 4.10 - 5.74 30.61 -0.02
12:20 40 46 78 ENE 9.7 11.2 - - - - - - 30.61 -
12:50 40 46 75 ENE 7.8 8.9 14 4.92 exactly 4.9 - - - 14 4.92 4.10 - 5.74 30.60 -0.05
13:50 41 45 68 NE 7.8 8.9 13 4.92 exactly 4.9 - - - 13 4.92 4.10 - 5.74 30.57 -0.07
14:20 41 46 72 East 9.7 11.2 - - - - - - 30.56 -
14:50 41 46 73 ENE 11.7 13.4 13 4.92 exactly 4.9 - - - 13 4.92 4.10 - 5.74 30.55 -0.06
15:20 41 46 74 ENE 9.7 11.2 - - - - - - 30.56 -
15:50 42 46 68 East 9.7 11.2 12 4.59 exactly 4.6 3 1.64 0.82 - 2.46 12 4.92 4.10 - 5.74 30.56 -0.03
16:20 42 46 69 East 11.7 13.4 - - - - - - 30.57 -
16:50 42 46 69 East 11.7 13.4 12 4.92 exactly 4.9 3 1.64 0.82 - 2.46 12 4.92 4.10 - 5.74 30.56 -0.01
17:20 42 46 71 East 11.7 13.4 - - - - - - 30.55 -
17:50 42 46 70 East 11.7 13.4 12 5.91 exactly 5.9 3 1.64 0.82 - 2.46 12 6.56 5.74 - 7.38 30.55 -
18:20 42 46 72 East 11.7 13.4 - - - - - - 30.54 -
18:50 41 46 74 East 11.7 13.4 11 4.59 exactly 4.6 3 1.64 0.82 - 2.46 11 4.92 4.10 - 5.74 30.55 -0.02
19:20 41 46 73 East 13.6 15.7 - - - - - - 30.54 -
19:50 41 46 77 East 13.6 15.7 13 5.25 exactly 5.2 3 1.64 0.82 - 2.46 13 4.92 4.10 - 5.74 30.52 -0.04
20:20 41 46 76 ESE 15.6 17.9 - - - - - - 30.52 -
20:50 41 46 75 East 15.6 17.9 13 4.92 exactly 4.9 3 1.64 0.82 - 2.46 13 4.92 4.10 - 5.74 30.52 -0.03
21:20 40 46 82 East 15.6 17.9 - - - - - - 30.51 -
21:50 41 46 77 East 17.5 20.1 13 4.59 exactly 4.6 3 1.64 0.82 - 2.46 13 4.92 4.10 - 5.74 30.50 -0.04
22:20 40 45 80 East 19.4 22.4 - - - - - - 30.51 -
22:50 40 45 80 ESE 17.5 20.1 13 4.59 exactly 4.6 4 1.64 0.82 - 2.46 13 4.92 4.10 - 5.74 30.51 -0.01
23:20 40 45 81 ESE 17.5 20.1 - - - - - - 30.51 -
23:50 40 45 82 East 19.4 22.4 12 4.92 exactly 4.9 3 1.64 0.82 - 2.46 12 4.92 4.10 - 5.74 30.50 -0.01
00:20 40 46 82 East 19.4 22.4 - - - - - - 30.49 -
00:50 40 46 83 ESE 19.4 22.4 13 4.92 exactly 4.9 3 1.64 0.82 - 2.46 13 4.92 4.10 - 5.74 30.48 -0.02
01:20 40 46 83 East 19.4 22.4 - - - - - - 30.48 -
01:50 40 46 83 East 19.4 22.4 13 4.92 exactly 4.9 3 1.64 0.82 - 2.46 13 4.92 4.10 - 5.74 30.47 -0.04
02:20 40 46 82 East 19.4 22.4 - - - - - - 30.46 -
02:50 40 46 83 East 19.4 22.4 12 4.92 exactly 4.9 4 3.28 2.46 - 4.10 12 4.92 4.10 - 5.74 30.46 -0.04
03:20 40 46 82 East 19.4 22.4 - - - - - - 30.46 -
03:50 40 46 82 East 17.5 20.1 12 4.92 exactly 4.9 4 3.28 2.46 - 4.10 12 3.28 2.46 - 4.10 30.45 -0.04

Detailed Wave Spectra

Time Water Depth Wave Height Spectral Peak Period Average Wave Period Sampling Interval Wave Record
20:00 843 ft 5.18 ft 14.8 sec 9.6 sec 0.6 sec 2400 sec
21:00 843 ft 5.18 ft 13.8 sec 9.9 sec 0.6 sec 2400 sec
22:00 843 ft 5.35 ft 12.1 sec 10.2 sec 0.6 sec 2400 sec
00:00 843 ft 5.22 ft 13.8 sec 10.2 sec 0.6 sec 2400 sec
01:00 843 ft 6.07 ft 12.9 sec 10.1 sec 0.6 sec 2400 sec
02:00 843 ft 6.66 ft 11.4 sec 9.9 sec 0.6 sec 2400 sec
03:00 843 ft 6.73 ft 11.4 sec 9.6 sec 0.6 sec 2400 sec
04:00 843 ft 6.36 ft 12.9 sec 9.8 sec 0.6 sec 2400 sec
05:00 843 ft 5.91 ft 12.9 sec 9.6 sec 0.6 sec 2400 sec
06:00 843 ft 5.74 ft 12.1 sec 9.6 sec 0.6 sec 2400 sec
07:00 843 ft 5.68 ft 12.9 sec 9.0 sec 0.6 sec 2400 sec
08:00 843 ft 5.02 ft 12.1 sec 9.3 sec 0.6 sec 2400 sec
09:00 843 ft 4.43 ft 12.9 sec 8.2 sec 0.6 sec 2400 sec
10:00 843 ft 4.79 ft 12.1 sec 9.1 sec 0.6 sec 2400 sec
11:00 843 ft 5.25 ft 12.9 sec 8.8 sec 0.6 sec 2400 sec
12:00 843 ft 5.31 ft 11.4 sec 9.5 sec 0.6 sec 2400 sec
13:00 843 ft 5.02 ft 13.8 sec 9.1 sec 0.6 sec 2400 sec
14:00 843 ft 5.05 ft 12.9 sec 9.6 sec 0.6 sec 2400 sec
16:00 843 ft 4.49 ft 12.1 sec 8.0 sec 0.6 sec 2400 sec
17:00 843 ft 4.86 ft 12.1 sec 7.6 sec 0.6 sec 2400 sec
18:00 843 ft 5.91 ft 12.1 sec 8.8 sec 0.6 sec 2400 sec
19:00 843 ft 4.66 ft 10.8 sec 7.2 sec 0.6 sec 2400 sec
20:00 843 ft 5.15 ft 12.9 sec 6.9 sec 0.6 sec 2400 sec
21:00 843 ft 5.02 ft 12.9 sec 6.8 sec 0.6 sec 2400 sec
22:00 843 ft 4.76 ft 12.9 sec 6.0 sec 0.6 sec 2400 sec
23:00 843 ft 4.63 ft 12.9 sec 6.0 sec 0.6 sec 2400 sec
00:00 843 ft 4.82 ft 12.1 sec 6.5 sec 0.6 sec 2400 sec
01:00 843 ft 4.79 ft 12.9 sec 6.1 sec 0.6 sec 2400 sec
02:00 843 ft 4.92 ft 12.9 sec 6.2 sec 0.6 sec 2400 sec
03:00 843 ft 4.92 ft 12.1 sec 5.8 sec 0.6 sec 2400 sec